Time;durP1;ratioP1;P1;durP2;ratioP2;P2;SDS_P1;SDS_P2;PMS_P1;PMS_P2;Temp;Humidity;BMP_temperature;BMP_pressure;BME280_temperature;BME280_humidity;BME280_pressure;Samples;Min_cycle;Max_cycle;Signal;HPM_P1;HPM_P2
2024/04/06 00:01:36;;;;;;;2.30;1.50;;;15.60;65.10;;;;;;5014199;28;20389;-74
2024/04/06 00:04:03;;;;;;;5.97;2.17;;;15.60;65.10;;;;;;5015190;28;20389;-74
2024/04/06 00:06:29;;;;;;;4.50;2.40;;;15.60;65.80;;;;;;5014669;28;20385;-75
2024/04/06 00:08:54;;;;;;;2.93;1.70;;;15.60;66.00;;;;;;5015749;28;20487;-75
2024/04/06 00:11:20;;;;;;;4.90;2.20;;;15.50;66.20;;;;;;5015270;28;20384;-75
2024/04/06 00:13:46;;;;;;;4.80;2.70;;;15.80;66.70;;;;;;4997241;28;20385;-75
2024/04/06 00:16:11;;;;;;;5.50;2.27;;;15.50;67.00;;;;;;5016498;28;20392;-75
2024/04/06 00:18:39;;;;;;;3.50;2.47;;;15.50;68.00;;;;;;5014889;28;20760;-75
2024/04/06 00:21:04;;;;;;;5.10;2.20;;;15.40;68.60;;;;;;5016523;28;20784;-75
2024/04/06 00:23:30;;;;;;;5.57;2.50;;;15.40;69.50;;;;;;5013416;28;20389;-75
2024/04/06 00:25:55;;;;;;;5.55;2.60;;;15.40;69.70;;;;;;5013642;28;20389;-75
2024/04/06 00:28:22;;;;;;;6.00;2.30;;;15.50;69.80;;;;;;5013319;28;20420;-75
2024/04/06 00:30:48;;;;;;;3.92;2.38;;;15.50;69.10;;;;;;5013383;28;20385;-74
2024/04/06 00:33:14;;;;;;;5.40;2.17;;;15.50;69.80;;;;;;5013048;28;20395;-75
2024/04/06 00:35:39;;;;;;;3.72;2.03;;;15.40;70.00;;;;;;5012938;28;20377;-75
2024/04/06 00:38:05;;;;;;;6.68;2.40;;;15.40;70.90;;;;;;5013504;28;20636;-75
2024/04/06 00:40:30;;;;;;;6.20;2.30;;;15.40;71.10;;;;;;5013142;28;20381;-74
2024/04/06 00:42:56;;;;;;;7.07;2.60;;;15.30;71.80;;;;;;5012906;28;20884;-76
2024/04/06 00:45:21;;;;;;;4.90;2.78;;;15.20;72.50;;;;;;5012793;28;20876;-75
2024/04/06 00:47:47;;;;;;;3.75;1.83;;;15.20;73.50;;;;;;5013823;28;20397;-74
2024/04/06 00:50:13;;;;;;;3.70;2.10;;;15.20;73.50;;;;;;5013859;28;20848;-75
2024/04/06 00:52:39;;;;;;;5.82;2.40;;;15.30;73.30;;;;;;5013081;28;20442;-75
2024/04/06 00:55:05;;;;;;;5.10;2.30;;;15.30;72.20;;;;;;4997030;28;20483;-73
2024/04/06 00:57:31;;;;;;;3.88;2.00;;;15.30;72.70;;;;;;5014687;28;20388;-75
2024/04/06 00:59:57;;;;;;;3.33;1.92;;;15.20;72.40;;;;;;5013932;28;20405;-75
2024/04/06 01:02:23;;;;;;;4.07;2.10;;;15.30;72.70;;;;;;5012651;28;20392;-75
2024/04/06 01:04:49;;;;;;;6.00;2.10;;;15.40;72.40;;;;;;5014003;28;20416;-75
2024/04/06 01:07:14;;;;;;;3.97;2.30;;;15.20;72.30;;;;;;5013016;28;20410;-74
2024/04/06 01:09:40;;;;;;;6.97;2.30;;;15.40;71.70;;;;;;5013172;28;20408;-75
2024/04/06 01:12:06;;;;;;;3.85;1.90;;;15.40;71.40;;;;;;5012903;28;21089;-75
2024/04/06 01:14:32;;;;;;;3.58;1.83;;;15.50;71.70;;;;;;5012491;28;20472;-76
2024/04/06 01:16:58;;;;;;;4.88;2.20;;;15.50;70.40;;;;;;5012161;28;20395;-76
2024/04/06 01:19:23;;;;;;;5.80;2.55;;;15.50;71.40;;;;;;5013389;28;20866;-76
2024/04/06 01:21:49;;;;;;;6.30;2.73;;;15.40;71.30;;;;;;5011933;28;20763;-75
2024/04/06 01:24:31;;;;;;;5.03;2.80;;;15.40;72.40;;;;;;5012157;28;20752;-74
2024/04/06 01:27:00;;;;;;;5.10;2.53;;;15.50;71.40;;;;;;5012143;28;20439;-75
2024/04/06 01:29:30;;;;;;;6.03;3.20;;;15.40;71.50;;;;;;5013012;28;20400;-76
2024/04/06 01:31:56;;;;;;;5.97;2.72;;;15.30;72.60;;;;;;5013163;28;20388;-75
2024/04/06 01:34:22;;;;;;;5.20;2.20;;;15.50;74.00;;;;;;5018619;28;20391;-73
2024/04/06 01:36:48;;;;;;;7.60;3.00;;;15.10;74.40;;;;;;5018194;28;20397;-74
2024/04/06 01:39:14;;;;;;;4.18;2.67;;;15.00;75.70;;;;;;5011928;28;20409;-75
2024/04/06 01:41:41;;;;;;;4.10;2.42;;;14.90;76.80;;;;;;5013031;28;20459;-74
2024/04/06 01:44:07;;;;;;;4.38;2.35;;;14.70;79.70;;;;;;5012433;28;20389;-75
2024/04/06 01:46:33;;;;;;;4.77;2.53;;;14.70;80.60;;;;;;5012583;28;20396;-75
2024/04/06 01:49:00;;;;;;;3.63;2.28;;;14.60;82.60;;;;;;5012351;28;20419;-76
2024/04/06 01:51:26;;;;;;;5.10;2.70;;;14.60;82.80;;;;;;5012405;28;20763;-75
2024/04/06 01:53:51;;;;;;;3.50;2.80;;;14.50;84.60;;;;;;5012176;28;20467;-75
2024/04/06 01:56:17;;;;;;;4.82;3.00;;;14.50;84.90;;;;;;5011865;28;20392;-77
2024/04/06 01:58:44;;;;;;;5.40;3.03;;;14.50;85.60;;;;;;5013926;28;20428;-74
2024/04/06 02:01:09;;;;;;;6.20;3.45;;;14.50;87.00;;;;;;5011532;28;20392;-76
2024/04/06 02:03:35;;;;;;;8.15;3.13;;;14.50;86.50;;;;;;4993910;28;20788;-74
2024/04/06 02:06:02;;;;;;;5.22;2.80;;;14.50;87.00;;;;;;5011161;28;20399;-75
2024/04/06 02:08:27;;;;;;;4.97;2.58;;;14.50;86.20;;;;;;5011258;28;20408;-76
2024/04/06 02:10:53;;;;;;;5.05;2.75;;;14.60;86.80;;;;;;5010962;28;20388;-74
2024/04/06 02:13:18;;;;;;;6.23;2.80;;;14.60;86.50;;;;;;5011674;28;20388;-76
2024/04/06 02:15:44;;;;;;;4.90;2.87;;;14.70;85.20;;;;;;5010955;28;20393;-74
2024/04/06 02:18:10;;;;;;;5.60;2.90;;;14.60;85.20;;;;;;5010829;28;20416;-75
2024/04/06 02:20:37;;;;;;;5.47;2.60;;;14.30;87.60;;;;;;5032114;22;20438;-72
2024/04/06 02:23:03;;;;;;;10.97;2.87;;;14.30;88.30;;;;;;5035471;28;20722;-73
2024/04/06 02:25:29;;;;;;;6.90;2.50;;;14.30;88.80;;;;;;5032915;28;20383;-72
2024/04/06 02:27:55;;;;;;;7.50;3.40;;;14.20;89.60;;;;;;5033201;28;20414;-71
2024/04/06 02:30:21;;;;;;;6.82;3.05;;;14.00;92.20;;;;;;5034585;28;20395;-73
2024/04/06 02:32:47;;;;;;;4.70;3.13;;;14.10;93.30;;;;;;5034146;28;20407;-73
2024/04/06 02:35:14;;;;;;;6.57;3.95;;;14.00;95.00;;;;;;5037698;28;20465;-72
2024/04/06 02:37:40;;;;;;;6.68;3.33;;;14.00;95.90;;;;;;5038063;28;20395;-72
2024/04/06 02:40:06;;;;;;;7.40;3.80;;;13.90;94.50;;;;;;5032858;28;20782;-72
2024/04/06 02:42:32;;;;;;;6.22;3.17;;;14.00;95.40;;;;;;5033231;28;20395;-72
2024/04/06 02:44:57;;;;;;;8.30;3.40;;;13.90;97.60;;;;;;5037214;28;20379;-72
2024/04/06 02:47:23;;;;;;;3.63;2.65;;;13.90;98.10;;;;;;5037018;28;20403;-72
2024/04/06 02:49:48;;;;;;;5.90;3.30;;;13.80;98.90;;;;;;5036695;28;20383;-71
2024/04/06 02:52:14;;;;;;;7.63;3.00;;;13.70;99.30;;;;;;5036778;28;20415;-72
2024/04/06 02:54:39;;;;;;;4.30;2.73;;;13.70;99.90;;;;;;5036098;28;20393;-72
2024/04/06 02:57:05;;;;;;;5.75;3.60;;;13.60;99.90;;;;;;5036424;28;20390;-71
2024/04/06 02:59:31;;;;;;;6.78;3.40;;;13.50;99.90;;;;;;5036123;28;20395;-71
2024/04/06 03:01:57;;;;;;;3.80;2.90;;;13.50;99.90;;;;;;5035873;28;20399;-73
2024/04/06 03:04:23;;;;;;;5.47;3.05;;;13.50;99.90;;;;;;5035967;28;20383;-72
2024/04/06 03:06:49;;;;;;;8.07;3.70;;;13.60;99.90;;;;;;5035668;28;20395;-71
2024/04/06 03:09:15;;;;;;;11.68;3.97;;;13.60;99.90;;;;;;5035379;28;20916;-72
2024/04/06 03:11:42;;;;;;;5.93;3.38;;;13.60;99.90;;;;;;5035601;28;20397;-73
2024/04/06 03:14:08;;;;;;;5.18;2.78;;;13.60;99.90;;;;;;5035058;28;20382;-72
2024/04/06 03:16:34;;;;;;;9.20;3.30;;;13.50;99.90;;;;;;5035589;28;20857;-71
2024/04/06 03:18:59;;;;;;;6.23;3.27;;;13.50;99.90;;;;;;5036057;28;20395;-71
2024/04/06 03:21:25;;;;;;;5.80;3.13;;;13.40;99.90;;;;;;5035897;28;20485;-71
2024/04/06 03:23:51;;;;;;;5.78;3.03;;;13.40;99.90;;;;;;5034618;28;20937;-72
2024/04/06 03:26:16;;;;;;;8.30;3.93;;;13.50;99.90;;;;;;5035894;28;20402;-70
2024/04/06 03:28:42;;;;;;;5.68;3.08;;;13.50;99.90;;;;;;5035983;28;20434;-71
2024/04/06 03:31:08;;;;;;;4.57;3.20;;;13.50;99.90;;;;;;5035204;28;20387;-71
2024/04/06 03:33:33;;;;;;;2.97;2.28;;;13.50;99.90;;;;;;5035690;28;20391;-72
2024/04/06 03:35:59;;;;;;;3.30;2.30;;;13.50;99.90;;;;;;5034311;28;20399;-72
2024/04/06 03:38:25;;;;;;;5.50;2.70;;;13.50;99.90;;;;;;5035352;28;20399;-72
2024/04/06 03:40:50;;;;;;;4.70;2.80;;;13.50;99.90;;;;;;5035819;28;20454;-71
2024/04/06 03:43:16;;;;;;;3.80;1.90;;;13.50;99.90;;;;;;5034676;28;20800;-71
2024/04/06 03:45:43;;;;;;;4.22;2.35;;;13.50;99.90;;;;;;5033861;28;20383;-71
2024/04/06 03:48:09;;;;;;;6.68;2.60;;;13.50;99.90;;;;;;5033131;28;20405;-71
2024/04/06 03:50:34;;;;;;;5.70;2.20;;;13.50;99.20;;;;;;5033659;28;20387;-71
2024/04/06 03:53:00;;;;;;;3.93;2.77;;;13.50;99.50;;;;;;5034053;28;20390;-72
2024/04/06 03:55:26;;;;;;;4.70;2.80;;;13.50;98.80;;;;;;5033788;28;20723;-71
2024/04/06 03:57:53;;;;;;;4.82;2.70;;;13.40;99.20;;;;;;5033604;28;20398;-70
2024/04/06 04:00:20;;;;;;;5.10;2.70;;;13.40;99.80;;;;;;5033636;28;20394;-72
2024/04/06 04:02:46;;;;;;;5.65;3.20;;;13.50;97.70;;;;;;5033842;28;20501;-72
2024/04/06 04:05:11;;;;;;;3.60;2.72;;;13.50;97.70;;;;;;5033475;28;20391;-71
2024/04/06 04:07:37;;;;;;;5.72;2.53;;;13.40;98.00;;;;;;5033605;28;20518;-71
2024/04/06 04:10:03;;;;;;;5.47;2.50;;;13.40;98.70;;;;;;5033583;28;20445;-72
2024/04/06 04:12:29;;;;;;;4.53;2.13;;;13.50;98.80;;;;;;5033332;28;20459;-72
2024/04/06 04:15:00;;;;;;;7.00;2.97;;;13.40;98.80;;;;;;5034431;28;20394;-72
2024/04/06 04:17:26;;;;;;;8.05;2.80;;;13.40;98.20;;;;;;5042790;28;20745;-72
2024/04/06 04:19:52;;;;;;;7.80;2.67;;;13.60;99.90;;;;;;5039308;28;20391;-72
2024/04/06 04:22:17;;;;;;;3.80;2.60;;;13.30;98.50;;;;;;5035907;28;20464;-73
2024/04/06 04:24:45;;;;;;;5.20;2.92;;;13.30;98.40;;;;;;5036562;28;21426;-72
2024/04/06 04:27:10;;;;;;;4.93;2.20;;;13.30;97.90;;;;;;5038091;28;20387;-72
2024/04/06 04:29:36;;;;;;;5.00;2.60;;;13.20;98.40;;;;;;5032354;28;20383;-71
2024/04/06 04:32:03;;;;;;;5.03;2.78;;;13.20;99.20;;;;;;5033573;28;20402;-71
2024/04/06 04:34:29;;;;;;;5.75;2.47;;;13.20;98.80;;;;;;5034716;28;20425;-72
2024/04/06 04:36:55;;;;;;;3.67;2.53;;;13.10;99.90;;;;;;5033830;28;20791;-71
2024/04/06 04:39:21;;;;;;;6.85;2.53;;;13.10;99.90;;;;;;5033300;28;20391;-71
2024/04/06 04:41:46;;;;;;;5.30;2.38;;;13.20;99.00;;;;;;5033488;28;20387;-70
2024/04/06 04:44:12;;;;;;;4.38;2.70;;;13.10;98.10;;;;;;5033749;28;20505;-72
2024/04/06 04:46:38;;;;;;;5.03;2.70;;;13.20;98.40;;;;;;5034177;28;20387;-71
2024/04/06 04:49:03;;;;;;;4.90;2.40;;;13.10;98.00;;;;;;5033993;28;20523;-70
2024/04/06 04:51:29;;;;;;;7.67;2.90;;;13.20;96.10;;;;;;5032665;28;20892;-71
2024/04/06 04:53:56;;;;;;;4.40;2.20;;;13.20;96.00;;;;;;5032411;28;20742;-71
2024/04/06 04:56:21;;;;;;;6.00;3.00;;;13.20;96.70;;;;;;5033028;28;20375;-72
2024/04/06 04:58:47;;;;;;;3.45;2.50;;;13.20;95.40;;;;;;5034989;28;20398;-71
2024/04/06 05:01:13;;;;;;;4.80;3.10;;;13.20;95.10;;;;;;5035118;28;20387;-71
2024/04/06 05:03:39;;;;;;;5.57;2.60;;;13.30;94.80;;;;;;5033866;28;20459;-72
2024/04/06 05:06:05;;;;;;;5.90;3.37;;;13.30;93.30;;;;;;5030873;28;20827;-72
2024/04/06 05:08:31;;;;;;;4.03;2.33;;;13.30;94.60;;;;;;5032745;28;20418;-71
2024/04/06 05:10:56;;;;;;;4.50;2.45;;;13.30;92.30;;;;;;5032310;28;20394;-71
2024/04/06 05:13:22;;;;;;;5.43;2.80;;;13.30;93.80;;;;;;5031208;28;20383;-71
2024/04/06 05:15:48;;;;;;;5.57;2.80;;;13.30;93.00;;;;;;5032354;28;20399;-72
2024/04/06 05:18:14;;;;;;;5.90;2.88;;;13.40;92.60;;;;;;5031062;28;20445;-73
2024/04/06 05:20:53;;;;;;;6.28;3.05;;;13.30;93.00;;;;;;5035673;28;20470;-74
2024/04/06 05:23:19;;;;;;;5.68;2.78;;;13.40;92.20;;;;;;5034076;28;20920;-71
2024/04/06 05:25:49;;;;;;;4.13;2.65;;;13.50;90.00;;;;;;5033063;28;20473;-72
2024/04/06 05:28:16;;;;;;;4.60;2.63;;;13.40;89.90;;;;;;5034581;28;20892;-72
2024/04/06 05:30:44;;;;;;;6.70;2.90;;;13.50;90.10;;;;;;5033965;28;20387;-72
2024/04/06 05:33:10;;;;;;;3.92;2.60;;;13.50;90.20;;;;;;5034534;28;20458;-73
2024/04/06 05:35:35;;;;;;;7.88;3.00;;;13.60;87.20;;;;;;5034154;28;20421;-71
2024/04/06 05:38:01;;;;;;;4.10;2.45;;;13.70;85.50;;;;;;5034850;28;20382;-72
2024/04/06 05:40:27;;;;;;;6.88;2.50;;;13.80;83.30;;;;;;5034360;28;20893;-73
2024/04/06 05:42:52;;;;;;;5.13;2.78;;;13.90;81.50;;;;;;5035006;28;20391;-73
2024/04/06 05:45:18;;;;;;;5.23;2.50;;;14.00;79.90;;;;;;5034250;28;20383;-74
2024/04/06 05:47:44;;;;;;;4.85;2.42;;;14.10;77.50;;;;;;5034914;28;20410;-72
2024/04/06 05:50:09;;;;;;;7.63;2.63;;;14.10;76.20;;;;;;5032260;28;20417;-72
2024/04/06 05:52:34;;;;;;;8.23;3.10;;;14.20;75.90;;;;;;5033604;28;20394;-72
2024/04/06 05:55:02;;;;;;;6.47;2.63;;;14.30;73.70;;;;;;5032751;28;20391;-72
2024/04/06 05:57:28;;;;;;;8.82;3.50;;;14.30;72.90;;;;;;5033009;28;20387;-71
2024/04/06 05:59:54;;;;;;;5.50;3.30;;;14.40;71.70;;;;;;5029328;28;20399;-71
2024/04/06 06:02:19;;;;;;;8.10;3.05;;;14.40;71.70;;;;;;5030094;28;20406;-71
2024/04/06 06:04:45;;;;;;;7.00;2.80;;;14.50;70.70;;;;;;5029524;28;20478;-72
2024/04/06 06:07:10;;;;;;;6.17;2.83;;;14.50;70.10;;;;;;5031027;28;20394;-71
2024/04/06 06:09:36;;;;;;;3.75;2.60;;;14.60;68.50;;;;;;5031204;28;20383;-73
2024/04/06 06:12:02;;;;;;;3.87;2.00;;;14.60;68.20;;;;;;5029007;28;20414;-72
2024/04/06 06:14:29;;;;;;;5.18;2.78;;;14.70;67.00;;;;;;5031381;28;20406;-72
2024/04/06 06:16:55;;;;;;;5.50;2.72;;;14.70;65.70;;;;;;5032659;28;20387;-72
2024/04/06 06:19:20;;;;;;;6.78;3.10;;;14.80;65.60;;;;;;5036373;28;20449;-70
2024/04/06 06:21:46;;;;;;;5.90;2.65;;;14.80;65.30;;;;;;5035072;28;20399;-72
2024/04/06 06:24:11;;;;;;;3.60;2.60;;;14.90;64.30;;;;;;5033770;28;20465;-72
2024/04/06 06:26:37;;;;;;;3.67;2.67;;;15.10;62.30;;;;;;5030006;28;20400;-72
2024/04/06 06:29:02;;;;;;;5.10;2.80;;;15.20;61.80;;;;;;5032990;28;20412;-72
2024/04/06 06:31:28;;;;;;;5.20;2.50;;;15.40;60.10;;;;;;5034321;28;20404;-71
2024/04/06 06:33:55;;;;;;;6.63;2.67;;;15.60;58.60;;;;;;5019333;28;20388;-71
2024/04/06 06:36:20;;;;;;;4.03;2.40;;;15.80;56.40;;;;;;5015559;28;20446;-71
2024/04/06 06:38:47;;;;;;;6.37;2.50;;;16.10;54.20;;;;;;5015082;28;20400;-72
2024/04/06 06:41:13;;;;;;;5.33;3.20;;;16.20;53.20;;;;;;5015008;28;20395;-72
2024/04/06 06:43:39;;;;;;;7.30;2.80;;;16.40;51.60;;;;;;5015808;28;20392;-72
2024/04/06 06:46:04;;;;;;;5.80;2.40;;;16.40;51.50;;;;;;5030070;28;20399;-72
2024/04/06 06:48:30;;;;;;;7.13;3.10;;;16.40;50.80;;;;;;5035266;28;20415;-71
2024/04/06 06:50:55;;;;;;;5.00;2.70;;;16.40;50.90;;;;;;5023174;28;20806;-72
2024/04/06 06:53:21;;;;;;;7.10;3.70;;;16.30;51.20;;;;;;5014537;28;20412;-72
2024/04/06 06:55:46;;;;;;;4.63;3.08;;;16.20;50.90;;;;;;5015879;28;20451;-72
2024/04/06 06:58:12;;;;;;;8.50;3.50;;;16.20;51.20;;;;;;5037322;28;20391;-72
2024/04/06 07:00:38;;;;;;;8.10;3.47;;;16.20;51.10;;;;;;5039652;28;20758;-74
2024/04/06 07:03:04;;;;;;;9.38;4.85;;;16.20;51.10;;;;;;5042269;28;20394;-73
2024/04/06 07:05:29;;;;;;;8.70;3.83;;;16.30;51.10;;;;;;5037907;28;20444;-71
2024/04/06 07:07:56;;;;;;;6.50;3.03;;;16.40;50.20;;;;;;5041439;28;20434;-73
2024/04/06 07:10:22;;;;;;;10.00;3.90;;;16.50;50.00;;;;;;5041462;28;20450;-73
2024/04/06 07:12:48;;;;;;;6.35;2.85;;;16.60;49.10;;;;;;5045163;28;20379;-73
2024/04/06 07:15:14;;;;;;;4.73;3.30;;;16.70;47.80;;;;;;5024125;28;20393;-74
2024/04/06 07:17:39;;;;;;;13.20;3.87;;;16.90;46.90;;;;;;5023724;28;20490;-73
2024/04/06 07:20:05;;;;;;;5.75;2.60;;;16.90;45.70;;;;;;5023953;28;20391;-72
2024/04/06 07:22:31;;;;;;;7.55;3.40;;;17.10;45.50;;;;;;5033597;28;20403;-72
2024/04/06 07:24:56;;;;;;;6.13;2.70;;;17.10;45.60;;;;;;5022995;28;20411;-72
2024/04/06 07:27:22;;;;;;;6.80;4.30;;;17.20;44.40;;;;;;5027338;28;20393;-72
2024/04/06 07:29:48;;;;;;;8.57;3.50;;;17.20;45.10;;;;;;5026481;28;20483;-73
2024/04/06 07:32:13;;;;;;;6.70;3.80;;;17.20;45.20;;;;;;5039095;28;20458;-71
2024/04/06 07:34:41;;;;;;;8.55;3.20;;;17.30;43.50;;;;;;5034527;28;20436;-72
2024/04/06 07:37:07;;;;;;;7.57;3.17;;;17.40;42.80;;;;;;5023225;28;20394;-72
2024/04/06 07:39:33;;;;;;;5.47;2.70;;;17.60;41.30;;;;;;5032188;28;20387;-71
2024/04/06 07:41:58;;;;;;;5.80;2.95;;;17.60;40.40;;;;;;5029973;28;20486;-71
2024/04/06 07:44:24;;;;;;;8.20;2.40;;;17.70;40.40;;;;;;5041485;28;20391;-71
2024/04/06 07:46:49;;;;;;;6.78;2.63;;;17.80;39.40;;;;;;5031509;28;20400;-72
2024/04/06 07:49:15;;;;;;;5.37;2.40;;;17.90;38.20;;;;;;5021433;28;20408;-71
2024/04/06 07:51:42;;;;;;;6.23;3.27;;;18.00;37.40;;;;;;5031274;28;20758;-72
2024/04/06 07:54:08;;;;;;;6.78;2.65;;;18.00;38.10;;;;;;5043014;28;20379;-72
2024/04/06 07:56:33;;;;;;;7.70;2.30;;;18.00;36.80;;;;;;5041645;28;20521;-72
2024/04/06 07:58:59;;;;;;;8.10;2.60;;;18.10;36.20;;;;;;5034116;28;20393;-71
2024/04/06 08:01:26;;;;;;;4.93;2.75;;;18.10;36.10;;;;;;5017943;28;20385;-72
2024/04/06 08:03:51;;;;;;;6.50;2.40;;;18.20;36.80;;;;;;5038531;28;20499;-74
2024/04/06 08:06:18;;;;;;;8.27;2.33;;;18.30;35.70;;;;;;5033032;28;20393;-73
2024/04/06 08:08:44;;;;;;;4.78;2.05;;;18.40;34.50;;;;;;5032966;28;20458;-72
2024/04/06 08:11:11;;;;;;;8.40;2.70;;;18.50;33.70;;;;;;5019067;28;20439;-73
2024/04/06 08:13:37;;;;;;;6.18;2.33;;;18.60;33.30;;;;;;5020167;28;20389;-72
2024/04/06 08:16:03;;;;;;;5.50;2.10;;;18.60;33.20;;;;;;5026795;28;20402;-73
2024/04/06 08:18:28;;;;;;;6.53;2.28;;;18.80;32.40;;;;;;5029811;28;20873;-72
2024/04/06 08:20:54;;;;;;;6.83;2.00;;;18.90;30.70;;;;;;5044830;23;20431;-73
2024/04/06 08:23:19;;;;;;;3.73;2.00;;;19.00;31.00;;;;;;4994842;28;20402;-74
2024/04/06 08:25:45;;;;;;;5.22;2.33;;;19.00;31.10;;;;;;4994341;28;20402;-75
2024/04/06 08:28:11;;;;;;;5.10;2.38;;;19.10;29.90;;;;;;5007376;28;20408;-73
2024/04/06 08:30:38;;;;;;;6.65;2.90;;;19.20;29.60;;;;;;5012570;28;20427;-74
2024/04/06 08:33:05;;;;;;;6.10;2.50;;;19.30;30.00;;;;;;5014632;28;20397;-75
2024/04/06 08:35:32;;;;;;;6.70;2.05;;;19.30;29.20;;;;;;5017813;28;20399;-80
2024/04/06 08:37:57;;;;;;;3.40;2.10;;;19.40;28.70;;;;;;5013800;28;20388;-76
2024/04/06 08:40:23;;;;;;;4.90;2.27;;;19.40;28.30;;;;;;5005486;28;20409;-75
2024/04/06 08:42:49;;;;;;;6.43;2.15;;;19.40;28.30;;;;;;5000848;28;20491;-75
2024/04/06 08:45:17;;;;;;;7.97;2.00;;;19.30;27.90;;;;;;5002208;28;20430;-73
2024/04/06 08:47:43;;;;;;;7.60;2.28;;;19.40;28.50;;;;;;5006046;28;20416;-75
2024/04/06 08:50:13;;;;;;;6.93;3.07;;;19.50;28.60;;;;;;5015427;28;20397;-77
2024/04/06 08:52:39;;;;;;;10.13;4.75;;;19.60;28.00;;;;;;5015104;28;20938;-75
2024/04/06 08:55:06;;;;;;;12.00;5.25;;;19.60;27.60;;;;;;5007199;28;20390;-73
2024/04/06 08:57:37;;;;;;;7.95;4.35;;;19.70;27.50;;;;;;5003865;28;20395;-76
2024/04/06 09:00:07;;;;;;;10.07;6.00;;;19.80;27.30;;;;;;5012997;28;20752;-73
2024/04/06 09:02:37;;;;;;;13.38;7.07;;;19.90;25.80;;;;;;5015669;28;20898;-76
2024/04/06 09:05:05;;;;;;;11.93;5.22;;;19.90;25.80;;;;;;5013142;28;20389;-73
2024/04/06 09:07:31;;;;;;;13.40;7.00;;;19.90;25.50;;;;;;5009876;28;20804;-74
2024/04/06 09:09:57;;;;;;;14.40;3.85;;;19.90;26.10;;;;;;4997465;28;20445;-74
2024/04/06 09:12:22;;;;;;;13.20;7.17;;;20.00;25.20;;;;;;5003876;28;20382;-75
2024/04/06 09:14:51;;;;;;;15.10;8.20;;;20.10;25.50;;;;;;4995679;28;20386;-76
2024/04/06 09:17:21;;;;;;;9.65;4.20;;;20.20;25.20;;;;;;5007850;28;20397;-76
2024/04/06 09:19:47;;;;;;;17.40;6.93;;;20.20;24.70;;;;;;5014855;28;20434;-73
2024/04/06 09:22:13;;;;;;;7.25;3.60;;;20.20;24.40;;;;;;5012014;28;20493;-73
2024/04/06 09:24:39;;;;;;;7.28;4.18;;;20.30;24.60;;;;;;5014515;28;20384;-75
2024/04/06 09:27:09;;;;;;;10.38;5.43;;;20.30;24.40;;;;;;5021380;28;20385;-76
2024/04/06 09:29:35;;;;;;;5.03;2.30;;;20.30;24.30;;;;;;5013639;28;20403;-74
2024/04/06 09:32:10;;;;;;;5.95;2.90;;;20.40;22.60;;;;;;5005806;28;20893;-75
2024/04/06 09:34:45;;;;;;;6.90;3.00;;;20.50;21.80;;;;;;5002997;28;20738;-73
2024/04/06 09:37:11;;;;;;;7.45;3.10;;;20.60;22.20;;;;;;5000622;28;20399;-76
2024/04/06 09:39:38;;;;;;;5.05;3.00;;;20.80;21.70;;;;;;5001545;28;20484;-74
2024/04/06 09:42:06;;;;;;;7.38;3.22;;;20.90;21.60;;;;;;5000731;28;20914;-73
2024/04/06 09:44:32;;;;;;;5.88;2.85;;;21.00;21.10;;;;;;5005402;28;20944;-73
2024/04/06 09:46:58;;;;;;;8.10;2.60;;;21.00;20.70;;;;;;4994248;28;20482;-75
2024/04/06 09:49:24;;;;;;;4.18;1.90;;;21.20;19.70;;;;;;4991364;28;20517;-74
2024/04/06 09:51:51;;;;;;;3.75;2.50;;;21.40;19.10;;;;;;4990315;28;20490;-72
2024/04/06 09:54:17;;;;;;;11.52;3.42;;;21.50;19.30;;;;;;4997802;28;20436;-72
2024/04/06 09:56:43;;;;;;;6.70;2.28;;;21.60;19.10;;;;;;4998501;28;20409;-71
2024/04/06 09:59:22;;;;;;;6.30;2.30;;;21.90;18.60;;;;;;5008384;28;20405;-74
2024/04/06 10:01:47;;;;;;;4.40;2.67;;;22.20;18.10;;;;;;4992474;28;20440;-72
2024/04/06 10:04:34;;;;;;;6.80;3.40;;;22.50;16.90;;;;;;4996176;28;20390;-73
2024/04/06 10:07:05;;;;;;;6.40;2.90;;;22.80;16.80;;;;;;4990750;28;20464;-75
2024/04/06 10:09:32;;;;;;;5.50;2.45;;;23.10;15.90;;;;;;4992550;28;20828;-75
2024/04/06 10:11:59;;;;;;;5.55;2.55;;;23.20;15.60;;;;;;4987909;28;20394;-72
2024/04/06 10:14:28;;;;;;;5.00;1.90;;;23.50;15.20;;;;;;4988814;28;20386;-75
2024/04/06 10:17:08;;;;;;;7.60;2.87;;;23.60;14.10;;;;;;5002161;28;20432;-75
2024/04/06 10:19:40;;;;;;;4.97;2.17;;;23.80;13.50;;;;;;5005514;28;20846;-74
2024/04/06 10:22:07;;;;;;;4.38;2.28;;;23.90;13.60;;;;;;5005142;28;20946;-71
2024/04/06 10:24:36;;;;;;;10.02;3.35;;;24.00;13.10;;;;;;4993271;28;20480;-73
2024/04/06 10:27:03;;;;;;;6.00;2.15;;;23.90;13.40;;;;;;4988751;28;20390;-74
2024/04/06 10:29:29;;;;;;;6.55;3.17;;;23.90;12.80;;;;;;4988438;28;20497;-73
2024/04/06 10:31:55;;;;;;;5.15;2.17;;;23.80;12.80;;;;;;4987625;28;20900;-73
2024/04/06 10:34:21;;;;;;;9.13;1.80;;;23.80;12.70;;;;;;4988381;28;20422;-74
2024/04/06 10:36:47;;;;;;;5.72;2.00;;;23.70;13.20;;;;;;4989397;28;20429;-74
2024/04/06 10:39:14;;;;;;;4.47;2.70;;;23.80;13.00;;;;;;4995429;28;20907;-72
2024/04/06 10:41:44;;;;;;;6.20;2.10;;;23.80;13.50;;;;;;5007690;28;20495;-75
2024/04/06 10:44:10;;;;;;;4.38;2.00;;;23.90;12.60;;;;;;5003600;28;20425;-72
2024/04/06 10:46:36;;;;;;;4.50;2.00;;;23.80;12.40;;;;;;5001678;28;20401;-73
2024/04/06 10:49:09;;;;;;;6.43;3.20;;;23.80;12.70;;;;;;5001491;28;20487;-74
2024/04/06 10:51:36;;;;;;;6.93;2.35;;;23.80;12.90;;;;;;5002585;28;20881;-76
2024/04/06 10:54:02;;;;;;;6.70;2.90;;;23.80;13.40;;;;;;4990695;28;20398;-73
2024/04/06 10:56:28;;;;;;;3.97;2.10;;;23.80;13.00;;;;;;4993057;28;20921;-74
2024/04/06 10:58:54;;;;;;;4.07;1.80;;;23.80;13.30;;;;;;5002839;28;20532;-74
2024/04/06 11:01:22;;;;;;;5.20;2.30;;;23.90;13.00;;;;;;4991153;28;20432;-73
2024/04/06 11:03:48;;;;;;;2.88;1.90;;;24.00;12.20;;;;;;5001770;28;20934;-73
2024/04/06 11:06:14;;;;;;;5.10;2.80;;;24.10;12.30;;;;;;5014225;28;20405;-74
2024/04/06 11:08:40;;;;;;;6.53;2.25;;;24.20;12.50;;;;;;5012847;28;20416;-73
2024/04/06 11:11:08;;;;;;;4.93;2.42;;;24.40;12.50;;;;;;5013866;28;20395;-74
2024/04/06 11:13:38;;;;;;;5.70;2.25;;;24.50;11.90;;;;;;5013164;28;20879;-74
2024/04/06 11:16:03;;;;;;;4.50;3.10;;;24.60;12.00;;;;;;5014249;28;20384;-73
2024/04/06 11:18:37;;;;;;;6.80;2.15;;;24.80;12.00;;;;;;5014023;28;20388;-73
2024/04/06 11:21:08;;;;;;;6.23;3.30;;;25.10;11.80;;;;;;5013909;28;20416;-75
2024/04/06 11:23:34;;;;;;;5.40;1.75;;;25.10;11.80;;;;;;5014581;28;20388;-74
2024/04/06 11:26:02;;;;;;;4.97;1.75;;;25.20;11.10;;;;;;5014215;28;20922;-72
2024/04/06 11:28:28;;;;;;;6.72;2.30;;;25.20;10.80;;;;;;5013318;28;20748;-75
2024/04/06 11:30:54;;;;;;;6.45;2.80;;;25.40;10.60;;;;;;5013327;28;20395;-73
2024/04/06 11:33:19;;;;;;;4.10;2.50;;;25.60;11.30;;;;;;5012771;28;20432;-74
2024/04/06 11:35:45;;;;;;;7.88;3.70;;;25.90;10.30;;;;;;5013334;28;20472;-73
2024/04/06 11:38:10;;;;;;;4.57;1.80;;;26.10;10.30;;;;;;5013432;28;20393;-73
2024/04/06 11:40:36;;;;;;;3.40;1.90;;;26.30;9.60;;;;;;5013315;28;20462;-73
2024/04/06 11:43:01;;;;;;;4.60;1.97;;;26.10;8.90;;;;;;5012996;28;20451;-72
2024/04/06 11:45:27;;;;;;;4.70;1.90;;;26.20;9.30;;;;;;5013359;28;20468;-74
2024/04/06 11:47:54;;;;;;;7.57;2.50;;;26.10;9.20;;;;;;5013296;28;20405;-75
2024/04/06 11:50:20;;;;;;;3.40;2.30;;;26.10;9.10;;;;;;5013305;28;20451;-73
2024/04/06 11:52:45;;;;;;;4.20;2.00;;;26.20;9.10;;;;;;5013296;28;20373;-73
2024/04/06 11:55:11;;;;;;;5.50;2.38;;;26.20;9.10;;;;;;5013176;28;20481;-74
2024/04/06 11:57:37;;;;;;;4.43;2.20;;;26.30;9.50;;;;;;5013452;28;20536;-74
2024/04/06 12:00:03;;;;;;;7.95;1.98;;;26.50;9.20;;;;;;5013230;28;20884;-74
2024/04/06 12:02:28;;;;;;;4.78;2.40;;;26.50;8.40;;;;;;5011657;28;20910;-73
2024/04/06 12:04:54;;;;;;;6.60;2.70;;;26.50;8.60;;;;;;5013143;28;20392;-73
2024/04/06 12:07:19;;;;;;;4.40;1.92;;;26.40;8.40;;;;;;5013009;28;20415;-75
2024/04/06 12:09:45;;;;;;;4.73;2.20;;;26.30;8.80;;;;;;5013147;28;20384;-75
2024/04/06 12:12:12;;;;;;;3.70;1.77;;;26.40;8.20;;;;;;5012877;28;20428;-74
2024/04/06 12:14:37;;;;;;;3.50;1.80;;;26.40;7.70;;;;;;5012643;28;20391;-74
2024/04/06 12:17:08;;;;;;;7.80;2.70;;;26.40;8.10;;;;;;5013007;28;20751;-73
2024/04/06 12:19:34;;;;;;;3.33;1.85;;;26.40;8.30;;;;;;5012849;28;20376;-72
2024/04/06 12:21:59;;;;;;;3.90;1.80;;;26.50;8.60;;;;;;5012341;28;20415;-73
2024/04/06 12:24:27;;;;;;;3.47;2.30;;;26.50;8.00;;;;;;5012422;28;20384;-73
2024/04/06 12:26:53;;;;;;;3.05;2.08;;;26.50;7.60;;;;;;5012531;28;20480;-73
2024/04/06 12:29:19;;;;;;;2.97;1.80;;;26.60;7.00;;;;;;5012452;28;20495;-72
2024/04/06 12:31:44;;;;;;;3.88;1.70;;;26.60;6.70;;;;;;5012279;28;20412;-74
2024/04/06 12:34:10;;;;;;;6.63;2.50;;;26.70;7.00;;;;;;5012584;28;20475;-74
2024/04/06 12:36:36;;;;;;;5.50;2.23;;;26.80;7.60;;;;;;5012383;28;20396;-73
2024/04/06 12:39:07;;;;;;;4.40;2.50;;;26.80;6.30;;;;;;5012400;28;20759;-73
2024/04/06 12:41:33;;;;;;;3.38;1.70;;;26.90;5.70;;;;;;5012138;28;20893;-72
2024/04/06 12:43:58;;;;;;;3.87;2.50;;;26.90;5.10;;;;;;5012112;28;20389;-73